Airfield :
LOGIN :

Register | Disclaimer

   EN    FR    IT 

 










Legend :    VFR   Marginal VFR   IFR   Intensive IFR   Very Intensive IFR
Visi :
Ceiling :
>= 8 km
>= 3000ft
5 to 8 km
1000 to 3000 ft
1500m to 5 km
500 to 1000 ft
800 to 1500m
200 to 500 ft
< 800m
< 200 ft
Symbols :   Thunderstorms  Fog  Heavy snow  Heavy precipitations  Wind > 20 kt
SIGMETs :     Misc.  Thunderstorms  Icing  Turbulence  Mountain Waves  Volcanic Ashes







- Airport Elevation : 215 ft
- IATA code : ABZ
- Download approach charts


EGPD - Aberdeen / Dyce

CURRENT METAR :
  • 190250Z 17003KT 9000 FEW025 04/04 Q1013 NOSIG

EXPIRED METARs :
  • 190220Z AUTO 16003KT 7000 NCD 05/04 Q1013
  • 190150Z 17004KT 9000 FEW006 SCT026 05/04 Q1013
  • 190120Z AUTO 18006KT 9000 NCD 05/04 Q1013
  • 190050Z 16006KT 9000 FEW006 SCT040 05/04 Q1013
  • 190020Z AUTO 15007KT 9999 BKN040 OVC048 05/04 Q1013 NOSIG

TAF TAF EGPD
Valid from the 19 at 00:00 until the 20 at 00:00 UTC


182305Z 1900/1924 16007KT 9999 SCT025
BECMG 1900/1903 6000 -RADZ BKN008
TEMPO 1902/1918 1200 RADZ BKN003
PROB30
TEMPO 1904/1912 0300 FG BKN001
BECMG 1917/1920 9999 NSW SCT025
PROB40
TEMPO 1922/1924 6000 RA BKN012
No reported NOTAMs for that airfield.



MET'MAP, your aeronautical weather chart ! - Copyright ORBIFLY December 2007 - Disclaimer

ORBIFLY MET'MAP TEAM :

Programming & Development : Alexandra Zaïnal
Concept & Development : Baudouin d'Aumeries
Co-Development & Prog : Marc-Olivier Méhu
Technical & hardware support : Manuel Goepfert

Contact : metmap@orbifly.com




SOURCES & CREDITS :

   NOAA